sensor_id;sensor_type;location;lat;lon;timestamp;temperature;humidity
25050;DHT22;13046;49.814;9.918;2023-05-02T00:02:00;8.30;99.90
25050;DHT22;13046;49.814;9.918;2023-05-02T00:04:26;8.30;99.90
25050;DHT22;13046;49.814;9.918;2023-05-02T00:06:52;8.20;99.90
25050;DHT22;13046;49.814;9.918;2023-05-02T00:09:18;8.20;99.90
25050;DHT22;13046;49.814;9.918;2023-05-02T00:11:43;8.30;99.90
25050;DHT22;13046;49.814;9.918;2023-05-02T00:14:09;8.30;99.90
25050;DHT22;13046;49.814;9.918;2023-05-02T00:16:35;8.20;99.90
25050;DHT22;13046;49.814;9.918;2023-05-02T00:19:01;8.20;99.90
25050;DHT22;13046;49.814;9.918;2023-05-02T00:21:26;8.10;99.90
25050;DHT22;13046;49.814;9.918;2023-05-02T00:23:54;8.10;99.90
25050;DHT22;13046;49.814;9.918;2023-05-02T00:26:22;8.10;99.90
25050;DHT22;13046;49.814;9.918;2023-05-02T00:28:48;8.10;99.90
25050;DHT22;13046;49.814;9.918;2023-05-02T00:31:14;8.20;99.90
25050;DHT22;13046;49.814;9.918;2023-05-02T00:33:41;8.10;99.90
25050;DHT22;13046;49.814;9.918;2023-05-02T00:36:14;8.10;99.90
25050;DHT22;13046;49.814;9.918;2023-05-02T00:38:40;8.10;99.90
25050;DHT22;13046;49.814;9.918;2023-05-02T00:41:05;8.10;99.90
25050;DHT22;13046;49.814;9.918;2023-05-02T00:43:31;8.10;99.90
25050;DHT22;13046;49.814;9.918;2023-05-02T00:45:57;8.20;99.90
25050;DHT22;13046;49.814;9.918;2023-05-02T00:48:24;8.10;99.90
25050;DHT22;13046;49.814;9.918;2023-05-02T00:50:50;8.10;99.90
25050;DHT22;13046;49.814;9.918;2023-05-02T00:53:15;8.10;99.90
25050;DHT22;13046;49.814;9.918;2023-05-02T00:55:42;8.10;99.90
25050;DHT22;13046;49.814;9.918;2023-05-02T00:58:12;8.10;99.90
25050;DHT22;13046;49.814;9.918;2023-05-02T01:01:09;8.00;99.90
25050;DHT22;13046;49.814;9.918;2023-05-02T01:14:14;7.90;99.90
25050;DHT22;13046;49.814;9.918;2023-05-02T01:16:42;7.90;99.90
25050;DHT22;13046;49.814;9.918;2023-05-02T01:19:27;8.00;99.90
25050;DHT22;13046;49.814;9.918;2023-05-02T01:21:55;7.90;99.90
25050;DHT22;13046;49.814;9.918;2023-05-02T01:24:26;7.90;99.90
25050;DHT22;13046;49.814;9.918;2023-05-02T01:27:11;8.00;99.90
25050;DHT22;13046;49.814;9.918;2023-05-02T01:29:38;8.00;99.90
25050;DHT22;13046;49.814;9.918;2023-05-02T01:32:07;7.90;99.90
25050;DHT22;13046;49.814;9.918;2023-05-02T01:34:35;7.90;99.90
25050;DHT22;13046;49.814;9.918;2023-05-02T01:37:04;7.90;99.90
25050;DHT22;13046;49.814;9.918;2023-05-02T01:39:32;7.90;99.90
25050;DHT22;13046;49.814;9.918;2023-05-02T01:42:01;7.90;99.90
25050;DHT22;13046;49.814;9.918;2023-05-02T01:44:29;7.90;99.90
25050;DHT22;13046;49.814;9.918;2023-05-02T01:46:55;8.00;99.90
25050;DHT22;13046;49.814;9.918;2023-05-02T01:49:23;8.00;99.90
25050;DHT22;13046;49.814;9.918;2023-05-02T01:51:49;8.00;99.90
25050;DHT22;13046;49.814;9.918;2023-05-02T01:54:19;8.00;99.90
25050;DHT22;13046;49.814;9.918;2023-05-02T01:56:46;8.00;99.90
25050;DHT22;13046;49.814;9.918;2023-05-02T01:59:18;8.00;99.90
25050;DHT22;13046;49.814;9.918;2023-05-02T02:01:45;8.00;99.90
25050;DHT22;13046;49.814;9.918;2023-05-02T02:04:13;8.00;99.90
25050;DHT22;13046;49.814;9.918;2023-05-02T02:06:43;8.10;99.90
25050;DHT22;13046;49.814;9.918;2023-05-02T02:09:10;8.10;99.90
25050;DHT22;13046;49.814;9.918;2023-05-02T02:14:20;8.00;99.90
25050;DHT22;13046;49.814;9.918;2023-05-02T02:16:47;8.10;99.90
25050;DHT22;13046;49.814;9.918;2023-05-02T02:19:14;8.10;99.90
25050;DHT22;13046;49.814;9.918;2023-05-02T02:21:42;8.10;99.90
25050;DHT22;13046;49.814;9.918;2023-05-02T02:24:08;8.10;99.90
25050;DHT22;13046;49.814;9.918;2023-05-02T02:26:35;8.20;99.90
25050;DHT22;13046;49.814;9.918;2023-05-02T02:29:02;8.20;99.90
25050;DHT22;13046;49.814;9.918;2023-05-02T02:31:34;8.20;99.90
25050;DHT22;13046;49.814;9.918;2023-05-02T02:34:01;8.20;99.90
25050;DHT22;13046;49.814;9.918;2023-05-02T02:36:35;8.20;99.90
25050;DHT22;13046;49.814;9.918;2023-05-02T02:39:11;8.30;99.90
25050;DHT22;13046;49.814;9.918;2023-05-02T02:42:09;8.30;99.90
25050;DHT22;13046;49.814;9.918;2023-05-02T02:47:22;8.30;99.90
25050;DHT22;13046;49.814;9.918;2023-05-02T02:50:13;8.30;99.90
25050;DHT22;13046;49.814;9.918;2023-05-02T02:52:59;8.40;99.90
25050;DHT22;13046;49.814;9.918;2023-05-02T02:55:44;8.40;99.90
25050;DHT22;13046;49.814;9.918;2023-05-02T02:58:20;8.40;99.90
25050;DHT22;13046;49.814;9.918;2023-05-02T03:00:50;8.30;99.90
25050;DHT22;13046;49.814;9.918;2023-05-02T03:03:19;8.40;99.90
25050;DHT22;13046;49.814;9.918;2023-05-02T03:05:47;8.40;99.90
25050;DHT22;13046;49.814;9.918;2023-05-02T03:08:14;8.40;99.90
25050;DHT22;13046;49.814;9.918;2023-05-02T03:10:40;8.40;99.90
25050;DHT22;13046;49.814;9.918;2023-05-02T03:13:06;8.40;99.90
25050;DHT22;13046;49.814;9.918;2023-05-02T03:18:23;8.50;99.90
25050;DHT22;13046;49.814;9.918;2023-05-02T03:20:49;8.50;99.90
25050;DHT22;13046;49.814;9.918;2023-05-02T03:23:16;8.50;99.90
25050;DHT22;13046;49.814;9.918;2023-05-02T03:25:41;8.50;99.90
25050;DHT22;13046;49.814;9.918;2023-05-02T03:28:10;8.50;99.90
25050;DHT22;13046;49.814;9.918;2023-05-02T03:30:37;8.60;99.90
25050;DHT22;13046;49.814;9.918;2023-05-02T03:33:06;8.60;99.90
25050;DHT22;13046;49.814;9.918;2023-05-02T03:35:33;8.60;99.90
25050;DHT22;13046;49.814;9.918;2023-05-02T03:37:59;8.60;99.90
25050;DHT22;13046;49.814;9.918;2023-05-02T03:40:26;8.60;99.90
25050;DHT22;13046;49.814;9.918;2023-05-02T03:42:53;8.50;99.90
25050;DHT22;13046;49.814;9.918;2023-05-02T03:45:28;8.60;99.90
25050;DHT22;13046;49.814;9.918;2023-05-02T03:47:54;8.60;99.90
25050;DHT22;13046;49.814;9.918;2023-05-02T03:50:22;8.60;99.90
25050;DHT22;13046;49.814;9.918;2023-05-02T03:52:49;8.60;99.90
25050;DHT22;13046;49.814;9.918;2023-05-02T03:55:19;8.70;99.90
25050;DHT22;13046;49.814;9.918;2023-05-02T03:57:46;8.60;99.90
25050;DHT22;13046;49.814;9.918;2023-05-02T04:00:12;8.60;99.90
25050;DHT22;13046;49.814;9.918;2023-05-02T04:02:38;8.60;99.90
25050;DHT22;13046;49.814;9.918;2023-05-02T04:05:06;8.70;99.90
25050;DHT22;13046;49.814;9.918;2023-05-02T04:07:34;8.70;99.90
25050;DHT22;13046;49.814;9.918;2023-05-02T04:10:03;8.70;99.90
25050;DHT22;13046;49.814;9.918;2023-05-02T04:12:32;8.80;99.90
25050;DHT22;13046;49.814;9.918;2023-05-02T04:14:58;8.80;99.90
25050;DHT22;13046;49.814;9.918;2023-05-02T04:17:27;8.80;99.90
25050;DHT22;13046;49.814;9.918;2023-05-02T04:19:53;8.70;99.90
25050;DHT22;13046;49.814;9.918;2023-05-02T04:22:23;8.70;99.90
25050;DHT22;13046;49.814;9.918;2023-05-02T04:24:53;8.80;99.90
25050;DHT22;13046;49.814;9.918;2023-05-02T04:27:19;8.80;99.90
25050;DHT22;13046;49.814;9.918;2023-05-02T04:29:49;8.80;99.90
25050;DHT22;13046;49.814;9.918;2023-05-02T04:32:16;8.90;99.90
25050;DHT22;13046;49.814;9.918;2023-05-02T04:34:42;8.90;99.90
25050;DHT22;13046;49.814;9.918;2023-05-02T04:37:09;9.00;99.90
25050;DHT22;13046;49.814;9.918;2023-05-02T04:39:35;9.00;99.90
25050;DHT22;13046;49.814;9.918;2023-05-02T04:42:05;9.00;99.90
25050;DHT22;13046;49.814;9.918;2023-05-02T04:44:37;9.00;99.90
25050;DHT22;13046;49.814;9.918;2023-05-02T04:47:02;9.00;99.90
25050;DHT22;13046;49.814;9.918;2023-05-02T04:49:29;9.10;99.90
25050;DHT22;13046;49.814;9.918;2023-05-02T04:51:56;9.20;99.90
25050;DHT22;13046;49.814;9.918;2023-05-02T04:54:22;9.20;99.90
25050;DHT22;13046;49.814;9.918;2023-05-02T04:56:48;9.20;99.90
25050;DHT22;13046;49.814;9.918;2023-05-02T04:59:14;9.20;99.90
25050;DHT22;13046;49.814;9.918;2023-05-02T05:01:41;9.30;99.90
25050;DHT22;13046;49.814;9.918;2023-05-02T05:04:08;9.30;99.90
25050;DHT22;13046;49.814;9.918;2023-05-02T05:06:34;9.30;99.90
25050;DHT22;13046;49.814;9.918;2023-05-02T05:09:01;9.40;99.90
25050;DHT22;13046;49.814;9.918;2023-05-02T05:11:27;9.40;99.90
25050;DHT22;13046;49.814;9.918;2023-05-02T05:13:52;9.50;99.90
25050;DHT22;13046;49.814;9.918;2023-05-02T05:16:18;9.50;99.90
25050;DHT22;13046;49.814;9.918;2023-05-02T05:18:45;9.50;99.90
25050;DHT22;13046;49.814;9.918;2023-05-02T05:21:13;9.60;99.90
25050;DHT22;13046;49.814;9.918;2023-05-02T05:23:39;9.60;99.90
25050;DHT22;13046;49.814;9.918;2023-05-02T05:26:15;9.70;99.90
25050;DHT22;13046;49.814;9.918;2023-05-02T05:28:44;9.70;99.90
25050;DHT22;13046;49.814;9.918;2023-05-02T05:31:12;9.70;99.90
25050;DHT22;13046;49.814;9.918;2023-05-02T05:33:42;9.70;99.90
25050;DHT22;13046;49.814;9.918;2023-05-02T05:36:13;9.70;99.90
25050;DHT22;13046;49.814;9.918;2023-05-02T05:38:39;9.70;99.90
25050;DHT22;13046;49.814;9.918;2023-05-02T05:41:07;9.80;99.90
25050;DHT22;13046;49.814;9.918;2023-05-02T05:43:35;9.90;99.90
25050;DHT22;13046;49.814;9.918;2023-05-02T05:46:00;9.90;99.90
25050;DHT22;13046;49.814;9.918;2023-05-02T05:48:28;9.90;99.90
25050;DHT22;13046;49.814;9.918;2023-05-02T05:50:54;10.00;99.90
25050;DHT22;13046;49.814;9.918;2023-05-02T05:53:20;10.00;99.90
25050;DHT22;13046;49.814;9.918;2023-05-02T05:55:47;10.10;99.90
25050;DHT22;13046;49.814;9.918;2023-05-02T05:58:13;10.20;99.90
25050;DHT22;13046;49.814;9.918;2023-05-02T06:00:40;10.30;99.90
25050;DHT22;13046;49.814;9.918;2023-05-02T06:03:06;10.30;99.90
25050;DHT22;13046;49.814;9.918;2023-05-02T06:05:32;10.40;99.90
25050;DHT22;13046;49.814;9.918;2023-05-02T06:07:58;10.50;99.90
25050;DHT22;13046;49.814;9.918;2023-05-02T06:10:25;10.60;99.90
25050;DHT22;13046;49.814;9.918;2023-05-02T06:12:51;10.70;99.90
25050;DHT22;13046;49.814;9.918;2023-05-02T06:15:21;10.70;99.90
25050;DHT22;13046;49.814;9.918;2023-05-02T06:17:49;10.70;99.90
25050;DHT22;13046;49.814;9.918;2023-05-02T06:20:15;10.80;99.90
25050;DHT22;13046;49.814;9.918;2023-05-02T06:22:41;10.90;99.90
25050;DHT22;13046;49.814;9.918;2023-05-02T06:25:07;10.90;99.90
25050;DHT22;13046;49.814;9.918;2023-05-02T06:27:33;11.00;99.90
25050;DHT22;13046;49.814;9.918;2023-05-02T06:29:59;11.10;99.90
25050;DHT22;13046;49.814;9.918;2023-05-02T06:32:28;11.20;99.90
25050;DHT22;13046;49.814;9.918;2023-05-02T06:34:54;11.20;99.90
25050;DHT22;13046;49.814;9.918;2023-05-02T06:37:19;11.40;99.90
25050;DHT22;13046;49.814;9.918;2023-05-02T06:39:45;11.50;99.90
25050;DHT22;13046;49.814;9.918;2023-05-02T06:42:11;11.60;99.90
25050;DHT22;13046;49.814;9.918;2023-05-02T06:44:37;11.80;99.90
25050;DHT22;13046;49.814;9.918;2023-05-02T06:47:06;11.90;99.90
25050;DHT22;13046;49.814;9.918;2023-05-02T06:49:32;12.00;99.90
25050;DHT22;13046;49.814;9.918;2023-05-02T06:51:57;12.10;99.90
25050;DHT22;13046;49.814;9.918;2023-05-02T06:54:23;12.20;99.90
25050;DHT22;13046;49.814;9.918;2023-05-02T06:56:49;12.40;99.90
25050;DHT22;13046;49.814;9.918;2023-05-02T06:59:15;12.50;99.90
25050;DHT22;13046;49.814;9.918;2023-05-02T07:01:43;12.60;99.90
25050;DHT22;13046;49.814;9.918;2023-05-02T07:04:09;12.70;99.90
25050;DHT22;13046;49.814;9.918;2023-05-02T07:06:35;12.80;99.90
25050;DHT22;13046;49.814;9.918;2023-05-02T07:09:01;12.90;99.90
25050;DHT22;13046;49.814;9.918;2023-05-02T07:11:26;13.00;99.90
25050;DHT22;13046;49.814;9.918;2023-05-02T07:13:52;13.20;99.90
25050;DHT22;13046;49.814;9.918;2023-05-02T07:16:18;13.40;99.90
25050;DHT22;13046;49.814;9.918;2023-05-02T07:18:44;13.50;99.90
25050;DHT22;13046;49.814;9.918;2023-05-02T07:21:11;13.50;99.90
25050;DHT22;13046;49.814;9.918;2023-05-02T07:23:37;13.20;99.90
25050;DHT22;13046;49.814;9.918;2023-05-02T07:26:02;13.40;99.90
25050;DHT22;13046;49.814;9.918;2023-05-02T07:28:29;13.50;99.90
25050;DHT22;13046;49.814;9.918;2023-05-02T07:30:55;13.60;99.90
25050;DHT22;13046;49.814;9.918;2023-05-02T07:33:21;13.50;99.90
25050;DHT22;13046;49.814;9.918;2023-05-02T07:35:48;13.30;99.90
25050;DHT22;13046;49.814;9.918;2023-05-02T07:38:14;13.40;99.90
25050;DHT22;13046;49.814;9.918;2023-05-02T07:40:40;13.50;99.90
25050;DHT22;13046;49.814;9.918;2023-05-02T07:43:05;13.60;99.90
25050;DHT22;13046;49.814;9.918;2023-05-02T07:45:31;13.80;99.90
25050;DHT22;13046;49.814;9.918;2023-05-02T07:47:57;13.90;99.90
25050;DHT22;13046;49.814;9.918;2023-05-02T07:50:22;13.90;99.90
25050;DHT22;13046;49.814;9.918;2023-05-02T07:52:48;13.90;99.90
25050;DHT22;13046;49.814;9.918;2023-05-02T07:55:14;13.90;99.90
25050;DHT22;13046;49.814;9.918;2023-05-02T07:57:40;13.80;99.90
25050;DHT22;13046;49.814;9.918;2023-05-02T08:00:07;13.80;99.90
25050;DHT22;13046;49.814;9.918;2023-05-02T08:02:39;13.80;99.90
25050;DHT22;13046;49.814;9.918;2023-05-02T08:05:05;13.90;99.90
25050;DHT22;13046;49.814;9.918;2023-05-02T08:07:32;14.10;99.90
25050;DHT22;13046;49.814;9.918;2023-05-02T08:09:59;14.00;99.90
25050;DHT22;13046;49.814;9.918;2023-05-02T08:12:25;14.10;99.90
25050;DHT22;13046;49.814;9.918;2023-05-02T08:14:51;14.20;99.90
25050;DHT22;13046;49.814;9.918;2023-05-02T08:17:17;14.50;99.90
25050;DHT22;13046;49.814;9.918;2023-05-02T08:19:42;14.70;99.90
25050;DHT22;13046;49.814;9.918;2023-05-02T08:22:08;14.90;99.90
25050;DHT22;13046;49.814;9.918;2023-05-02T08:24:34;15.10;99.90
25050;DHT22;13046;49.814;9.918;2023-05-02T08:27:00;15.20;99.90
25050;DHT22;13046;49.814;9.918;2023-05-02T08:29:28;15.40;99.90
25050;DHT22;13046;49.814;9.918;2023-05-02T08:31:54;15.70;99.90
25050;DHT22;13046;49.814;9.918;2023-05-02T08:34:19;15.70;99.90
25050;DHT22;13046;49.814;9.918;2023-05-02T08:36:46;15.50;99.90
25050;DHT22;13046;49.814;9.918;2023-05-02T08:39:11;15.20;99.90
25050;DHT22;13046;49.814;9.918;2023-05-02T08:41:37;15.30;99.90
25050;DHT22;13046;49.814;9.918;2023-05-02T08:44:05;15.70;99.90
25050;DHT22;13046;49.814;9.918;2023-05-02T08:46:34;16.00;99.90
25050;DHT22;13046;49.814;9.918;2023-05-02T08:49:00;16.10;99.90
25050;DHT22;13046;49.814;9.918;2023-05-02T08:51:27;16.30;99.90
25050;DHT22;13046;49.814;9.918;2023-05-02T08:53:54;16.50;99.90
25050;DHT22;13046;49.814;9.918;2023-05-02T08:56:20;16.30;99.90
25050;DHT22;13046;49.814;9.918;2023-05-02T08:58:46;16.50;99.90
25050;DHT22;13046;49.814;9.918;2023-05-02T09:01:16;16.40;99.90
25050;DHT22;13046;49.814;9.918;2023-05-02T09:03:44;16.30;99.90
25050;DHT22;13046;49.814;9.918;2023-05-02T09:08:38;16.70;99.90
25050;DHT22;13046;49.814;9.918;2023-05-02T09:11:05;17.10;99.90
25050;DHT22;13046;49.814;9.918;2023-05-02T09:13:42;16.70;99.90
25050;DHT22;13046;49.814;9.918;2023-05-02T09:16:15;16.30;99.90
25050;DHT22;13046;49.814;9.918;2023-05-02T09:18:45;16.00;99.90
25050;DHT22;13046;49.814;9.918;2023-05-02T09:21:14;16.00;99.90
25050;DHT22;13046;49.814;9.918;2023-05-02T09:23:42;16.10;99.90
25050;DHT22;13046;49.814;9.918;2023-05-02T09:31:10;16.30;99.90
25050;DHT22;13046;49.814;9.918;2023-05-02T09:33:39;16.70;99.90
25050;DHT22;13046;49.814;9.918;2023-05-02T09:36:07;17.40;99.90
25050;DHT22;13046;49.814;9.918;2023-05-02T09:38:33;17.90;99.90
25050;DHT22;13046;49.814;9.918;2023-05-02T09:40:59;18.10;99.90
25050;DHT22;13046;49.814;9.918;2023-05-02T09:43:27;18.70;99.90
25050;DHT22;13046;49.814;9.918;2023-05-02T09:46:00;18.50;99.90
25050;DHT22;13046;49.814;9.918;2023-05-02T09:48:28;18.80;99.90
25050;DHT22;13046;49.814;9.918;2023-05-02T09:50:54;19.00;99.90
25050;DHT22;13046;49.814;9.918;2023-05-02T09:53:20;19.00;99.90
25050;DHT22;13046;49.814;9.918;2023-05-02T09:55:46;18.30;99.90
25050;DHT22;13046;49.814;9.918;2023-05-02T09:58:22;17.50;99.90
25050;DHT22;13046;49.814;9.918;2023-05-02T10:00:49;17.00;99.90
25050;DHT22;13046;49.814;9.918;2023-05-02T10:03:15;16.70;99.90
25050;DHT22;13046;49.814;9.918;2023-05-02T10:05:43;16.60;99.90
25050;DHT22;13046;49.814;9.918;2023-05-02T10:08:10;16.50;99.90
25050;DHT22;13046;49.814;9.918;2023-05-02T10:10:38;16.40;99.90
25050;DHT22;13046;49.814;9.918;2023-05-02T10:13:05;16.50;99.90
25050;DHT22;13046;49.814;9.918;2023-05-02T10:15:31;16.40;99.90
25050;DHT22;13046;49.814;9.918;2023-05-02T10:17:59;16.10;99.90
25050;DHT22;13046;49.814;9.918;2023-05-02T10:20:35;16.10;99.90
25050;DHT22;13046;49.814;9.918;2023-05-02T10:23:02;16.20;99.90
25050;DHT22;13046;49.814;9.918;2023-05-02T10:25:29;16.10;99.90
25050;DHT22;13046;49.814;9.918;2023-05-02T10:27:56;16.10;99.90
25050;DHT22;13046;49.814;9.918;2023-05-02T10:30:23;16.20;99.90
25050;DHT22;13046;49.814;9.918;2023-05-02T10:32:51;16.30;99.90
25050;DHT22;13046;49.814;9.918;2023-05-02T10:35:18;16.30;99.90
25050;DHT22;13046;49.814;9.918;2023-05-02T10:37:44;16.10;99.90
25050;DHT22;13046;49.814;9.918;2023-05-02T10:40:12;16.20;99.90
25050;DHT22;13046;49.814;9.918;2023-05-02T10:42:41;17.20;99.90
25050;DHT22;13046;49.814;9.918;2023-05-02T10:45:33;17.90;99.90
25050;DHT22;13046;49.814;9.918;2023-05-02T10:48:16;17.30;99.90
25050;DHT22;13046;49.814;9.918;2023-05-02T10:50:46;17.70;99.90
25050;DHT22;13046;49.814;9.918;2023-05-02T10:53:35;18.10;99.90
25050;DHT22;13046;49.814;9.918;2023-05-02T10:56:12;18.10;99.90
25050;DHT22;13046;49.814;9.918;2023-05-02T10:58:39;18.30;99.90
25050;DHT22;13046;49.814;9.918;2023-05-02T11:04:00;18.10;99.90
25050;DHT22;13046;49.814;9.918;2023-05-02T11:06:34;17.70;99.90
25050;DHT22;13046;49.814;9.918;2023-05-02T11:11:43;17.90;99.90
25050;DHT22;13046;49.814;9.918;2023-05-02T11:19:29;18.60;99.90
25050;DHT22;13046;49.814;9.918;2023-05-02T11:24:49;19.70;99.90
25050;DHT22;13046;49.814;9.918;2023-05-02T11:30:05;19.70;99.90
25050;DHT22;13046;49.814;9.918;2023-05-02T11:35:25;19.50;99.90
25050;DHT22;13046;49.814;9.918;2023-05-02T11:37:58;19.40;99.90
25050;DHT22;13046;49.814;9.918;2023-05-02T11:40:25;19.80;99.90
25050;DHT22;13046;49.814;9.918;2023-05-02T11:42:51;19.30;99.90
25050;DHT22;13046;49.814;9.918;2023-05-02T11:45:17;18.80;99.90
25050;DHT22;13046;49.814;9.918;2023-05-02T11:47:43;18.30;99.90
25050;DHT22;13046;49.814;9.918;2023-05-02T11:50:11;17.90;99.90
25050;DHT22;13046;49.814;9.918;2023-05-02T11:52:41;17.70;99.90
25050;DHT22;13046;49.814;9.918;2023-05-02T11:55:11;18.50;99.90
25050;DHT22;13046;49.814;9.918;2023-05-02T11:57:38;19.10;99.90
25050;DHT22;13046;49.814;9.918;2023-05-02T12:00:04;19.80;99.90
25050;DHT22;13046;49.814;9.918;2023-05-02T12:05:05;19.30;99.90
25050;DHT22;13046;49.814;9.918;2023-05-02T12:07:38;18.20;99.90
25050;DHT22;13046;49.814;9.918;2023-05-02T12:10:06;18.00;99.90
25050;DHT22;13046;49.814;9.918;2023-05-02T12:12:32;18.20;99.90
25050;DHT22;13046;49.814;9.918;2023-05-02T12:15:05;18.90;99.90
25050;DHT22;13046;49.814;9.918;2023-05-02T12:17:32;19.20;99.90
25050;DHT22;13046;49.814;9.918;2023-05-02T12:19:59;19.60;99.90
25050;DHT22;13046;49.814;9.918;2023-05-02T12:22:27;20.20;99.90
25050;DHT22;13046;49.814;9.918;2023-05-02T12:24:53;21.00;99.90
25050;DHT22;13046;49.814;9.918;2023-05-02T12:27:19;20.50;99.90
25050;DHT22;13046;49.814;9.918;2023-05-02T12:29:46;19.90;99.90
25050;DHT22;13046;49.814;9.918;2023-05-02T12:32:13;20.00;99.90
25050;DHT22;13046;49.814;9.918;2023-05-02T12:34:39;20.20;99.90
25050;DHT22;13046;49.814;9.918;2023-05-02T12:37:07;20.00;99.90
25050;DHT22;13046;49.814;9.918;2023-05-02T12:39:42;19.80;99.90
25050;DHT22;13046;49.814;9.918;2023-05-02T12:42:12;19.90;99.90
25050;DHT22;13046;49.814;9.918;2023-05-02T12:44:41;20.70;99.90
25050;DHT22;13046;49.814;9.918;2023-05-02T12:47:09;21.70;99.90
25050;DHT22;13046;49.814;9.918;2023-05-02T12:50:07;21.90;99.90
25050;DHT22;13046;49.814;9.918;2023-05-02T12:52:47;20.90;99.90
25050;DHT22;13046;49.814;9.918;2023-05-02T12:55:21;20.40;99.90
25050;DHT22;13046;49.814;9.918;2023-05-02T12:58:05;19.80;99.90
25050;DHT22;13046;49.814;9.918;2023-05-02T13:00:33;18.60;99.90
25050;DHT22;13046;49.814;9.918;2023-05-02T13:03:00;18.30;99.90
25050;DHT22;13046;49.814;9.918;2023-05-02T13:05:26;17.80;99.90
25050;DHT22;13046;49.814;9.918;2023-05-02T13:07:51;17.90;99.90
25050;DHT22;13046;49.814;9.918;2023-05-02T13:10:18;18.10;99.90
25050;DHT22;13046;49.814;9.918;2023-05-02T13:12:45;18.90;99.90
25050;DHT22;13046;49.814;9.918;2023-05-02T13:15:11;19.90;99.90
25050;DHT22;13046;49.814;9.918;2023-05-02T13:17:37;20.30;99.90
25050;DHT22;13046;49.814;9.918;2023-05-02T13:20:02;20.00;99.90
25050;DHT22;13046;49.814;9.918;2023-05-02T13:22:28;19.90;99.90
25050;DHT22;13046;49.814;9.918;2023-05-02T13:24:54;19.30;99.90
25050;DHT22;13046;49.814;9.918;2023-05-02T13:27:23;18.80;99.90
25050;DHT22;13046;49.814;9.918;2023-05-02T13:29:49;19.40;99.90
25050;DHT22;13046;49.814;9.918;2023-05-02T13:32:15;20.20;99.90
25050;DHT22;13046;49.814;9.918;2023-05-02T13:34:41;20.50;99.90
25050;DHT22;13046;49.814;9.918;2023-05-02T13:37:07;21.30;99.90
25050;DHT22;13046;49.814;9.918;2023-05-02T13:39:33;21.40;99.90
25050;DHT22;13046;49.814;9.918;2023-05-02T13:41:58;21.20;99.90
25050;DHT22;13046;49.814;9.918;2023-05-02T13:44:24;20.90;99.90
25050;DHT22;13046;49.814;9.918;2023-05-02T13:46:50;20.50;99.90
25050;DHT22;13046;49.814;9.918;2023-05-02T13:49:15;20.50;99.90
25050;DHT22;13046;49.814;9.918;2023-05-02T13:51:41;20.30;99.90
25050;DHT22;13046;49.814;9.918;2023-05-02T13:54:07;20.10;99.90
25050;DHT22;13046;49.814;9.918;2023-05-02T13:56:32;19.80;99.90
25050;DHT22;13046;49.814;9.918;2023-05-02T13:58:58;19.50;99.90
25050;DHT22;13046;49.814;9.918;2023-05-02T14:01:24;19.20;99.90
25050;DHT22;13046;49.814;9.918;2023-05-02T14:03:52;19.40;99.90
25050;DHT22;13046;49.814;9.918;2023-05-02T14:06:18;19.80;99.90
25050;DHT22;13046;49.814;9.918;2023-05-02T14:08:44;19.70;99.90
25050;DHT22;13046;49.814;9.918;2023-05-02T14:11:10;19.70;99.90
25050;DHT22;13046;49.814;9.918;2023-05-02T14:13:36;19.40;99.90
25050;DHT22;13046;49.814;9.918;2023-05-02T14:16:02;19.50;99.90
25050;DHT22;13046;49.814;9.918;2023-05-02T14:18:28;19.40;99.90
25050;DHT22;13046;49.814;9.918;2023-05-02T14:20:53;19.30;99.90
25050;DHT22;13046;49.814;9.918;2023-05-02T14:23:22;18.50;99.90
25050;DHT22;13046;49.814;9.918;2023-05-02T14:25:47;18.30;99.90
25050;DHT22;13046;49.814;9.918;2023-05-02T14:28:13;18.10;99.90
25050;DHT22;13046;49.814;9.918;2023-05-02T14:30:39;18.00;99.90
25050;DHT22;13046;49.814;9.918;2023-05-02T14:33:05;17.90;99.90
25050;DHT22;13046;49.814;9.918;2023-05-02T14:35:30;17.80;99.90
25050;DHT22;13046;49.814;9.918;2023-05-02T14:37:56;17.70;99.90
25050;DHT22;13046;49.814;9.918;2023-05-02T14:40:21;17.70;99.90
25050;DHT22;13046;49.814;9.918;2023-05-02T14:42:47;17.80;99.90
25050;DHT22;13046;49.814;9.918;2023-05-02T14:45:13;17.90;99.90
25050;DHT22;13046;49.814;9.918;2023-05-02T14:47:38;17.60;99.90
25050;DHT22;13046;49.814;9.918;2023-05-02T14:50:04;17.80;99.90
25050;DHT22;13046;49.814;9.918;2023-05-02T14:52:30;18.10;99.90
25050;DHT22;13046;49.814;9.918;2023-05-02T14:55:00;18.10;99.90
25050;DHT22;13046;49.814;9.918;2023-05-02T14:57:25;17.80;99.90
25050;DHT22;13046;49.814;9.918;2023-05-02T14:59:51;17.90;99.90
25050;DHT22;13046;49.814;9.918;2023-05-02T15:02:17;18.00;99.90
25050;DHT22;13046;49.814;9.918;2023-05-02T15:04:43;18.00;99.90
25050;DHT22;13046;49.814;9.918;2023-05-02T15:07:08;17.90;99.90
25050;DHT22;13046;49.814;9.918;2023-05-02T15:09:34;17.80;99.90
25050;DHT22;13046;49.814;9.918;2023-05-02T15:12:00;17.80;99.90
25050;DHT22;13046;49.814;9.918;2023-05-02T15:14:27;17.70;99.90
25050;DHT22;13046;49.814;9.918;2023-05-02T15:16:53;17.50;99.90
25050;DHT22;13046;49.814;9.918;2023-05-02T15:19:19;17.40;99.90
25050;DHT22;13046;49.814;9.918;2023-05-02T15:21:47;17.50;99.90
25050;DHT22;13046;49.814;9.918;2023-05-02T15:24:14;17.50;99.90
25050;DHT22;13046;49.814;9.918;2023-05-02T15:26:40;17.50;99.90
25050;DHT22;13046;49.814;9.918;2023-05-02T15:29:06;17.70;99.90
25050;DHT22;13046;49.814;9.918;2023-05-02T15:31:31;18.10;99.90
25050;DHT22;13046;49.814;9.918;2023-05-02T15:33:58;18.50;99.90
25050;DHT22;13046;49.814;9.918;2023-05-02T15:36:28;19.30;99.90
25050;DHT22;13046;49.814;9.918;2023-05-02T15:38:55;19.90;99.90
25050;DHT22;13046;49.814;9.918;2023-05-02T15:41:21;19.80;99.90
25050;DHT22;13046;49.814;9.918;2023-05-02T15:43:46;19.90;99.90
25050;DHT22;13046;49.814;9.918;2023-05-02T15:55:56;20.40;99.90
25050;DHT22;13046;49.814;9.918;2023-05-02T15:58:22;19.70;99.90
25050;DHT22;13046;49.814;9.918;2023-05-02T16:00:47;19.80;99.90
25050;DHT22;13046;49.814;9.918;2023-05-02T16:03:13;20.00;99.90
25050;DHT22;13046;49.814;9.918;2023-05-02T16:05:40;20.00;99.90
25050;DHT22;13046;49.814;9.918;2023-05-02T16:08:06;20.30;99.90
25050;DHT22;13046;49.814;9.918;2023-05-02T16:10:32;20.30;99.90
25050;DHT22;13046;49.814;9.918;2023-05-02T16:13:00;20.30;99.90
25050;DHT22;13046;49.814;9.918;2023-05-02T16:15:26;20.30;99.90
25050;DHT22;13046;49.814;9.918;2023-05-02T16:17:53;20.60;99.90
25050;DHT22;13046;49.814;9.918;2023-05-02T16:20:18;20.50;99.90
25050;DHT22;13046;49.814;9.918;2023-05-02T16:22:45;20.40;99.90
25050;DHT22;13046;49.814;9.918;2023-05-02T16:25:15;20.40;99.90
25050;DHT22;13046;49.814;9.918;2023-05-02T16:27:42;20.40;99.90
25050;DHT22;13046;49.814;9.918;2023-05-02T16:30:08;19.50;99.90
25050;DHT22;13046;49.814;9.918;2023-05-02T16:32:34;18.90;99.90
25050;DHT22;13046;49.814;9.918;2023-05-02T16:34:59;18.80;99.90
25050;DHT22;13046;49.814;9.918;2023-05-02T16:37:25;18.90;99.90